createdAt,value
2022-10-20T04:02:39.704Z,35.90
2022-10-20T04:05:07.129Z,33.00
2022-10-20T04:07:33.659Z,35.60
2022-10-20T04:10:02.445Z,31.42
2022-10-20T04:12:29.842Z,30.40
2022-10-20T04:14:56.419Z,27.77
2022-10-20T04:17:23.176Z,28.25
2022-10-20T04:19:49.690Z,28.27
2022-10-20T04:22:16.663Z,31.13
2022-10-20T04:24:43.535Z,27.75
2022-10-20T04:27:10.437Z,25.90
2022-10-20T04:29:37.729Z,25.35
2022-10-20T04:32:04.578Z,28.03
2022-10-20T04:34:31.216Z,27.40
2022-10-20T04:36:58.314Z,28.40
2022-10-20T04:39:25.528Z,30.65
2022-10-20T04:41:52.082Z,26.35
2022-10-20T04:44:18.628Z,24.63
2022-10-20T04:46:45.253Z,27.35
2022-10-20T04:49:11.783Z,27.65
2022-10-20T04:51:38.334Z,27.88
2022-10-20T04:56:36.520Z,28.30
2022-10-20T04:59:03.960Z,26.85
2022-10-20T05:01:31.199Z,26.08
2022-10-20T05:03:58.130Z,27.83
2022-10-20T05:06:30.996Z,31.23
2022-10-20T05:09:00.466Z,27.07
2022-10-20T05:11:29.812Z,29.40
2022-10-20T05:13:56.966Z,26.35
2022-10-20T05:16:24.204Z,25.70
2022-10-20T05:18:53.555Z,28.25
2022-10-20T05:21:23.763Z,25.63
2022-10-20T05:23:56.414Z,26.73
2022-10-20T05:26:23.603Z,30.08
2022-10-20T05:28:51.695Z,28.38
2022-10-20T05:31:21.015Z,25.10
2022-10-20T05:33:53.947Z,25.83
2022-10-20T05:36:23.863Z,26.25
2022-10-20T05:38:52.264Z,26.27
2022-10-20T05:41:21.796Z,24.50
2022-10-20T05:44:03.370Z,27.42
2022-10-20T05:46:32.497Z,27.30
2022-10-20T05:49:01.037Z,30.33
2022-10-20T05:51:30.892Z,25.30
2022-10-20T05:53:59.226Z,25.05
2022-10-20T05:56:27.349Z,27.02
2022-10-20T05:58:53.951Z,25.37
2022-10-20T06:01:26.315Z,27.65
2022-10-20T06:03:57.507Z,25.05
2022-10-20T06:06:26.762Z,28.17
2022-10-20T06:08:53.987Z,27.10
2022-10-20T06:11:22.232Z,24.97
2022-10-20T06:13:51.891Z,25.23
2022-10-20T06:16:25.405Z,28.73
2022-10-20T06:18:52.449Z,28.30
2022-10-20T06:21:22.066Z,26.35
2022-10-20T06:23:49.045Z,26.77
2022-10-20T06:26:18.184Z,28.45
2022-10-20T06:28:47.104Z,29.02
2022-10-20T06:31:19.160Z,32.50
2022-10-20T06:33:46.683Z,27.67
2022-10-20T06:36:14.103Z,26.97
2022-10-20T06:38:41.450Z,29.42
2022-10-20T06:41:10.476Z,27.75
2022-10-20T06:43:37.209Z,27.50
2022-10-20T06:46:05.905Z,25.73
2022-10-20T06:48:35.164Z,27.80
2022-10-20T06:51:06.544Z,26.73
2022-10-20T06:53:34.849Z,28.10
2022-10-20T06:56:06.231Z,27.52
2022-10-20T06:58:34.518Z,26.13
2022-10-20T07:01:09.978Z,28.27
2022-10-20T07:03:38.770Z,28.15
2022-10-20T07:06:07.069Z,25.23
2022-10-20T07:08:36.313Z,32.05
2022-10-20T07:11:08.947Z,26.58
2022-10-20T07:13:37.655Z,31.27
2022-10-20T07:16:05.694Z,27.77
2022-10-20T07:18:32.791Z,28.42
2022-10-20T07:21:01.836Z,27.40
2022-10-20T07:23:30.256Z,27.58
2022-10-20T07:26:05.656Z,30.03
2022-10-20T07:28:33.086Z,26.33
2022-10-20T07:31:09.157Z,30.00
2022-10-20T07:33:36.070Z,24.30
2022-10-20T07:36:18.562Z,27.42
2022-10-20T07:38:46.828Z,27.30
2022-10-20T07:41:14.244Z,28.00
2022-10-20T07:43:42.220Z,27.75
2022-10-20T07:46:10.639Z,26.85
2022-10-20T07:48:37.596Z,30.33
2022-10-20T07:51:24.975Z,27.23
2022-10-20T07:53:58.120Z,25.77
2022-10-20T07:56:35.782Z,26.75
2022-10-20T07:59:03.259Z,29.10
2022-10-20T08:01:30.153Z,25.42
2022-10-20T08:03:56.911Z,25.47
2022-10-20T08:06:23.615Z,25.83
2022-10-20T08:08:50.425Z,25.20
2022-10-20T08:11:17.128Z,25.52
2022-10-20T08:13:43.973Z,24.83
2022-10-20T08:16:16.236Z,26.73
2022-10-20T08:21:36.011Z,25.60
2022-10-20T08:21:36.908Z,22.88
2022-10-20T08:24:02.852Z,24.23
2022-10-20T08:26:29.568Z,27.38
2022-10-20T08:28:56.068Z,26.00
2022-10-20T08:31:23.438Z,22.70
2022-10-20T08:33:52.857Z,22.45
2022-10-20T08:36:20.902Z,24.60
2022-10-20T08:38:48.468Z,23.80
2022-10-20T08:41:21.928Z,22.97
2022-10-20T08:43:51.027Z,26.10
2022-10-20T08:46:20.648Z,26.40
2022-10-20T08:48:48.079Z,23.58
2022-10-20T08:51:26.787Z,22.80
2022-10-20T08:53:56.938Z,27.27
2022-10-20T08:56:25.905Z,24.10
2022-10-20T08:58:53.154Z,27.42
2022-10-20T09:01:26.979Z,23.63
2022-10-20T09:04:16.445Z,21.42
2022-10-20T09:06:45.599Z,24.77
2022-10-20T09:09:18.257Z,22.15
2022-10-20T09:11:45.455Z,22.15
2022-10-20T09:14:12.716Z,22.85
2022-10-20T09:16:58.684Z,22.25
2022-10-20T09:19:27.198Z,20.73
2022-10-20T09:21:57.774Z,22.08
2022-10-20T09:24:27.941Z,21.17
2022-10-20T09:26:59.120Z,22.88
2022-10-20T09:29:37.519Z,21.65
2022-10-20T09:32:44.812Z,21.63
2022-10-20T09:35:17.220Z,20.40
2022-10-20T09:37:49.771Z,22.10
2022-10-20T09:40:18.069Z,22.15
2022-10-20T09:42:54.537Z,20.60
2022-10-20T09:45:23.814Z,21.47
2022-10-20T09:47:56.486Z,21.75
2022-10-20T09:50:33.795Z,20.50
2022-10-20T09:53:04.184Z,23.20
2022-10-20T09:55:37.579Z,21.80
2022-10-20T09:58:05.945Z,20.87
2022-10-20T10:00:37.661Z,22.70
2022-10-20T10:03:22.759Z,22.08
2022-10-20T10:05:58.066Z,20.30
2022-10-20T10:08:28.940Z,20.15
2022-10-20T10:11:00.344Z,21.03
2022-10-20T10:13:30.510Z,23.23
2022-10-20T10:16:08.740Z,20.10
2022-10-20T10:18:37.404Z,21.63
2022-10-20T10:21:09.974Z,22.20
2022-10-20T10:23:49.640Z,22.47
2022-10-20T10:26:37.605Z,24.55
2022-10-20T10:29:04.879Z,24.77
2022-10-20T10:31:33.509Z,22.75
2022-10-20T10:34:12.336Z,26.08
2022-10-20T10:36:38.882Z,25.97
2022-10-20T10:39:10.693Z,23.30
2022-10-20T10:42:00.875Z,26.77
2022-10-20T10:44:30.865Z,26.20
2022-10-20T10:47:16.872Z,23.35
2022-10-20T10:50:03.703Z,24.80
2022-10-20T10:52:39.342Z,29.92
2022-10-20T10:55:44.088Z,25.30
2022-10-20T10:58:21.092Z,29.70
2022-10-20T11:01:00.165Z,27.85
2022-10-20T11:03:54.515Z,27.10
2022-10-20T11:06:21.028Z,28.13
2022-10-20T11:09:13.610Z,33.25
2022-10-20T11:11:52.723Z,31.58
2022-10-20T11:14:25.348Z,31.95
2022-10-20T11:17:00.494Z,30.03
2022-10-20T11:19:39.763Z,31.92
2022-10-20T11:22:20.310Z,30.17
2022-10-20T11:24:52.929Z,35.15
2022-10-20T11:27:25.750Z,31.00
2022-10-20T11:29:57.940Z,33.60
2022-10-20T11:32:39.569Z,33.65
2022-10-20T11:35:33.526Z,31.85
2022-10-20T11:38:18.671Z,32.00
2022-10-20T11:40:51.258Z,30.75
2022-10-20T11:43:40.122Z,31.80
2022-10-20T11:46:11.231Z,33.65
2022-10-20T11:48:45.858Z,32.53
2022-10-20T11:51:36.187Z,30.65
2022-10-20T11:54:40.543Z,28.05
2022-10-20T11:57:25.261Z,30.80
2022-10-20T12:03:14.394Z,30.48
2022-10-20T12:05:53.219Z,31.30
2022-10-20T12:08:44.749Z,32.83
2022-10-20T12:11:27.340Z,31.77
2022-10-20T12:13:59.601Z,30.85
2022-10-20T12:16:54.054Z,35.33
2022-10-20T12:19:29.682Z,32.50
2022-10-20T12:22:13.986Z,37.63
2022-10-20T12:24:49.900Z,33.53
2022-10-20T12:27:25.429Z,33.28
2022-10-20T12:29:54.632Z,35.72
2022-10-20T12:32:38.445Z,32.00
2022-10-20T12:35:11.497Z,30.00
2022-10-20T12:37:42.156Z,30.57
2022-10-20T12:40:11.242Z,29.65
2022-10-20T12:42:47.256Z,27.98
2022-10-20T12:45:19.667Z,24.10
2022-10-20T12:47:52.260Z,27.02
2022-10-20T12:50:39.150Z,27.23
2022-10-20T12:53:32.644Z,27.35
2022-10-20T12:56:10.352Z,27.65
2022-10-20T12:58:39.010Z,25.20
2022-10-20T13:01:08.734Z,26.33
2022-10-20T13:03:37.231Z,27.90
2022-10-20T13:06:23.786Z,29.10
2022-10-20T13:09:10.352Z,28.38
2022-10-20T13:11:40.904Z,30.15
2022-10-20T13:14:20.256Z,28.33
2022-10-20T13:16:51.022Z,27.87
2022-10-20T13:19:24.856Z,30.45
2022-10-20T13:21:51.559Z,28.85
2022-10-20T13:24:44.993Z,31.50
2022-10-20T13:27:12.002Z,33.53
2022-10-20T13:29:43.120Z,28.57
2022-10-20T13:32:28.583Z,31.35
2022-10-20T13:35:04.782Z,32.40
2022-10-20T13:37:38.090Z,35.72
2022-10-20T13:40:24.077Z,28.42
2022-10-20T13:43:02.761Z,32.77
2022-10-20T13:45:53.726Z,29.88
2022-10-20T13:48:32.267Z,27.52
2022-10-20T13:51:05.874Z,23.33
2022-10-20T13:53:37.316Z,25.25
2022-10-20T13:56:19.021Z,26.73
2022-10-20T13:59:18.733Z,25.98
2022-10-20T14:01:54.381Z,25.83
2022-10-20T14:04:31.544Z,23.25
2022-10-20T14:07:13.291Z,23.25
2022-10-20T14:09:45.248Z,21.53
2022-10-20T14:12:22.825Z,25.55
2022-10-20T14:14:49.517Z,25.42
2022-10-20T14:17:21.683Z,27.95
2022-10-20T14:19:48.642Z,26.88
2022-10-20T14:22:15.119Z,23.80
2022-10-20T14:24:47.251Z,23.00
2022-10-20T14:27:26.947Z,23.05
2022-10-20T14:29:54.366Z,22.83
2022-10-20T14:32:25.857Z,21.95
2022-10-20T14:35:01.678Z,21.10
2022-10-20T14:37:35.657Z,20.63
2022-10-20T14:40:06.496Z,22.92
2022-10-20T14:42:34.075Z,19.00
2022-10-20T14:45:03.285Z,18.52
2022-10-20T14:47:40.045Z,17.00
2022-10-20T14:50:07.309Z,18.40
2022-10-20T14:52:38.581Z,17.75
2022-10-20T14:55:37.009Z,17.80
2022-10-20T14:58:04.107Z,19.30
2022-10-20T15:00:36.792Z,18.90
2022-10-20T15:03:07.508Z,20.42
2022-10-20T15:05:36.364Z,20.05
2022-10-20T15:08:21.630Z,20.95
2022-10-20T15:10:48.375Z,18.95
2022-10-20T15:13:27.998Z,19.50
2022-10-20T15:15:56.325Z,24.63
2022-10-20T15:18:24.808Z,19.60
2022-10-20T15:20:53.376Z,21.67
2022-10-20T15:23:22.679Z,18.17
2022-10-20T15:26:00.412Z,20.58
2022-10-20T15:28:43.941Z,20.87
2022-10-20T15:31:13.320Z,20.80
2022-10-20T15:33:40.604Z,22.73
2022-10-20T15:36:20.720Z,25.05
2022-10-20T15:38:50.926Z,25.70
2022-10-20T15:41:30.091Z,23.37
2022-10-20T15:43:56.987Z,28.08
2022-10-20T15:46:23.537Z,30.02
2022-10-20T15:48:50.070Z,31.75
2022-10-20T15:51:22.521Z,26.92
2022-10-20T15:53:49.995Z,28.73
2022-10-20T15:56:17.367Z,30.10
2022-10-20T15:58:44.421Z,28.50
2022-10-20T16:01:16.899Z,28.83
2022-10-20T16:03:44.148Z,27.15
2022-10-20T16:06:13.521Z,27.07
2022-10-20T16:08:41.573Z,29.30
2022-10-20T16:11:08.963Z,29.00
2022-10-20T16:13:48.896Z,28.98
2022-10-20T16:16:18.853Z,31.35
2022-10-20T16:18:45.708Z,30.97
2022-10-20T16:21:12.604Z,33.83
2022-10-20T16:23:42.328Z,38.85
2022-10-20T16:26:12.580Z,36.00
2022-10-20T16:28:39.121Z,36.70
2022-10-20T16:31:10.934Z,32.63
2022-10-20T16:33:37.902Z,32.20
2022-10-20T16:38:40.184Z,31.02
2022-10-20T16:41:10.213Z,32.70
2022-10-20T16:43:38.754Z,30.10
2022-10-20T16:46:06.875Z,32.03
2022-10-20T16:48:35.703Z,32.17
2022-10-20T16:51:10.094Z,33.78
2022-10-20T16:53:37.110Z,31.65
2022-10-20T16:56:04.621Z,34.07
2022-10-20T16:58:31.164Z,31.92
2022-10-20T17:01:04.253Z,30.75
2022-10-20T17:03:31.157Z,33.72
2022-10-20T17:05:59.652Z,35.28
2022-10-20T17:08:27.939Z,31.67
2022-10-20T17:10:56.706Z,37.15
2022-10-20T17:13:23.288Z,36.20
2022-10-20T17:15:50.206Z,35.40
2022-10-20T17:18:17.220Z,38.42
2022-10-20T17:20:43.753Z,35.30
2022-10-20T17:23:10.307Z,36.28
2022-10-20T17:25:37.478Z,35.22
2022-10-20T17:28:04.129Z,35.60
2022-10-20T17:30:30.621Z,33.58
2022-10-20T17:32:57.138Z,36.07
2022-10-20T17:35:23.663Z,32.35
2022-10-20T17:37:50.113Z,30.55
2022-10-20T17:42:44.001Z,29.85
2022-10-20T17:45:10.686Z,31.70
2022-10-20T17:47:37.205Z,32.85
2022-10-20T17:50:04.262Z,34.90
2022-10-20T17:52:30.793Z,34.45
2022-10-20T17:54:57.256Z,32.08
2022-10-20T17:57:24.051Z,31.90
2022-10-20T17:59:53.424Z,32.60
2022-10-20T18:02:23.761Z,33.22
2022-10-20T18:04:51.122Z,31.77
2022-10-20T18:07:17.686Z,32.60
2022-10-20T18:09:44.603Z,32.07
2022-10-20T18:12:11.224Z,38.25
2022-10-20T18:14:37.710Z,33.28
2022-10-20T18:17:04.232Z,33.92
2022-10-20T18:19:30.729Z,34.13
2022-10-20T18:21:57.300Z,36.27
2022-10-20T18:24:24.001Z,35.88
2022-10-20T18:26:50.507Z,32.50
2022-10-20T18:29:17.351Z,35.28
2022-10-20T18:31:45.473Z,32.25
2022-10-20T18:34:14.688Z,30.63
2022-10-20T18:36:44.950Z,32.55
2022-10-20T18:39:13.603Z,31.70
2022-10-20T18:41:41.128Z,33.03
2022-10-20T18:44:12.396Z,33.28
2022-10-20T18:46:39.650Z,30.53
2022-10-20T18:49:07.429Z,32.13
2022-10-20T18:51:34.764Z,33.00
2022-10-20T18:54:02.954Z,30.35
2022-10-20T18:56:30.531Z,31.40
2022-10-20T18:58:59.299Z,32.23
2022-10-20T19:01:28.851Z,33.92
2022-10-20T19:03:57.077Z,32.47
2022-10-20T19:06:27.325Z,30.45
2022-10-20T19:08:59.715Z,30.30
2022-10-20T19:11:28.669Z,29.23
2022-10-20T19:13:56.006Z,29.50
2022-10-20T19:16:26.176Z,33.88
2022-10-20T19:18:54.109Z,32.58
2022-10-20T19:21:21.786Z,31.25
2022-10-20T19:23:51.885Z,26.93
2022-10-20T19:26:25.051Z,28.42
2022-10-20T19:28:58.449Z,29.90
2022-10-20T19:31:25.425Z,37.55
2022-10-20T19:33:54.645Z,39.00
2022-10-20T19:36:21.761Z,31.43
2022-10-20T19:38:48.500Z,30.15
2022-10-20T19:41:15.505Z,31.08
2022-10-20T19:43:42.179Z,28.60
2022-10-20T19:46:12.479Z,27.15
2022-10-20T19:48:39.307Z,28.80
2022-10-20T19:51:06.503Z,29.10
2022-10-20T19:53:34.031Z,29.50
2022-10-20T19:56:00.552Z,29.33
2022-10-20T19:58:27.071Z,28.50
2022-10-20T20:00:57.799Z,28.70
2022-10-20T20:03:24.907Z,26.33
2022-10-20T20:06:16.129Z,27.50
2022-10-20T20:09:04.717Z,26.40
2022-10-20T20:11:31.491Z,26.33
2022-10-20T20:14:00.736Z,26.87
2022-10-20T20:16:28.801Z,30.05
2022-10-20T20:18:55.496Z,25.77
2022-10-20T20:21:23.258Z,24.77
2022-10-20T20:24:00.495Z,24.98
2022-10-20T20:26:33.270Z,28.93
2022-10-20T20:29:01.381Z,24.98
2022-10-20T20:31:28.783Z,27.77
2022-10-20T20:33:56.911Z,24.75
2022-10-20T20:36:26.151Z,27.95
2022-10-20T20:38:55.171Z,27.07
2022-10-20T20:41:26.058Z,26.42
2022-10-20T20:43:52.730Z,24.05
2022-10-20T20:46:21.384Z,24.33
2022-10-20T20:48:47.942Z,25.52
2022-10-20T20:51:15.435Z,29.67
2022-10-20T20:53:42.018Z,27.77
2022-10-20T20:56:11.026Z,26.13
2022-10-20T20:58:38.183Z,21.65
2022-10-20T21:01:08.704Z,23.80
2022-10-20T21:03:36.315Z,26.13
2022-10-20T21:06:12.392Z,28.92
2022-10-20T21:08:41.279Z,24.95
2022-10-20T21:11:13.085Z,25.98
2022-10-20T21:13:41.034Z,24.10
2022-10-20T21:16:14.761Z,26.27
2022-10-20T21:18:42.800Z,27.85
2022-10-20T21:21:30.366Z,23.85
2022-10-20T21:23:57.911Z,23.30
2022-10-20T21:26:25.724Z,24.27
2022-10-20T21:28:53.087Z,25.57
2022-10-20T21:31:22.038Z,25.33
2022-10-20T21:33:54.118Z,26.83
2022-10-20T21:36:21.555Z,25.70
2022-10-20T21:38:48.885Z,24.70
2022-10-20T21:41:21.128Z,26.80
2022-10-20T21:43:50.352Z,27.13
2022-10-20T21:46:22.276Z,25.48
2022-10-20T21:48:50.768Z,25.60
2022-10-20T21:51:21.772Z,25.77
2022-10-20T21:53:48.850Z,26.70
2022-10-20T21:56:16.070Z,26.45
2022-10-20T21:58:42.918Z,24.75
